Dati Storici

Data ora Umidita' aria (%) Temperatura aria (°C) Rad globale (W/m²) Gonioanemometro (°) Tacoanemometro (m/s) Pioggia (mm)
16-06-2020 10:50 60.6 % 25.457 156.379 1.12 0 0
16-06-2020 10:40 58.9 % 26.149 77.359 0.316 0 0
16-06-2020 10:30 58.4 % 26.011 38.453 -0.043 0 0
16-06-2020 10:20 60.5 % 25.906 74.114 -0.044 0 0
16-06-2020 10:10 61.5 % 26.083 165.246 -0.045 0 0
16-06-2020 10:00 62.6 % 24.326 16.906 0.453 0 0
16-06-2020 09:50 65 % 25.004 340.49 0.847 0 0
16-06-2020 09:40 68.1 % 24.963 105.814 -0.041 0 0
16-06-2020 09:30 73 % 23.874 21.962 -0.034 0 0
16-06-2020 09:20 74.6 % 23.042 20.625 -0.031 0 0
16-06-2020 09:10 76.2 % 22.903 168.349 -0.03 0 0
16-06-2020 09:00 78.2 % 22.878 288.727 -0.027 0 0
16-06-2020 08:50 87.5 % 22.255 212.013 -0.024 0 0
16-06-2020 08:40 91.6 % 21.495 188.444 -0.02 0 0
16-06-2020 08:30 95.4 % 20.896 288.137 0.881 0 0
16-06-2020 08:20 97.6 % 20.308 308.816 1.136 0 0
16-06-2020 08:10 97.7 % 19.902 340.766 1.23 0 0
16-06-2020 08:00 97.7 % 19.405 6.768 0.538 0 0
16-06-2020 07:50 97.7 % 18.933 343.35 0.916 0 0
16-06-2020 07:40 97.8 % 18.752 276.721 -0.01 0 0

I dati sono presentati in modo automatico a scopo informativo. In seguito a verifica i dati possono subire modifiche o essere invalidati e non riportati negli archivi definitivi.